Hub


Voltar

 INFORMAÇÕES METEOROLÓGICAS

METAR FOR SBUR


ADDS - METARS form results

(0644 UTC 05 July 2020)
Data provider http://aviationweather.gov/metar/data/
 
Forecast for: SBUR (UBERABA , BR)
Text: TAF SBUR 050203Z 0506/0518 05010KT CAVOK TN15/0509Z TX27/0517Z RMK PGF
Forecast period: 0600 to 1800 UTC 05 July 2020
Forecast type: FROM: standard forecast or significant change
Winds: from the NE (50 degrees) at 12 MPH (10 knots; 5.1 m/s)
Visibility: 6 or more miles 10+ km)
Ceiling: unknown
Clouds: missing
Weather: no significant weather forecast for this period


 MAPA DO AEROPORTO


 INFORMAÇÕES DA PISTA

Pista 17 Tamanho da pista 5771 ft Largura da pista 148 ft
Elevação da pista 0 ft Ranhura da pista 0 ft Proa da pista 0
Pista 35 Tamanho da pista 5771 ft Largura da pista 148 ft
Elevação da pista 0 ft Ranhura da pista 0 ft Proa da pista 0

 FREQUÊNCIAS DO AEROPORTO

Tipo APP Nome APP Frequência 120.8 MHZ
Tipo RDO Nome RDO Frequência 120.8 MHZ
Tipo TWR Nome TWR Frequência 118.5 MHZ

 AUXÍLIOS DE NAVEGAÇÃO PRÓXIMOS AO AEROPORTO

Tipo NDB Nome Uberaba Frequência 235 KHZ